• Join FlightAware (Why Join?)
  • Login
  • US Flag 
04:26AM EST


 

Airport Tracker/Info


-or-


 

Live Flight TrackerFlight Track Log ✈ EJA929 ✈ 05-Jun-2013 ✈ KRST - KMDW

Flight Track Log - Related Links

Times and Time Zones

All times are in EDT time to prevent confusion due to time zone crossing. See the EJA929 flight status page for this flight to view local times or setup timezone preferences in your user account.

Time Position Orientation Groundspeed Altitude Reporting Facility
EDT Latitude Longitude Course Direction KTS MPH feet Rate Location/Type
08:24PM 43.8389 -92.3969 135° Southeast 283 326 7,200  Level Minneapolis Center
08:25PM 43.7831 -92.3275 138° Southeast 289 333 11,600 3,480 Climbing Minneapolis Center
08:27PM 43.7058 -92.2356 139° Southeast 374 430 14,500 3,240 Climbing Minneapolis Center
08:28PM 43.6047 -92.1150 139° Southeast 401 461 18,300 2,640 Climbing Minneapolis Center
08:29PM 43.9044 -92.4949 136° Southeast  Level FlightAware Approximate
08:29PM 43.5183 -92.0108 139° Southeast 414 476 20,000  Level Minneapolis Center
08:30PM 43.4283 -91.9061 140° Southeast 423 487 22,100 1,980 Climbing Minneapolis Center
08:31PM 43.3378 -91.7978 139° Southeast 430 495 24,200 1,920 Climbing Minneapolis Center
08:32PM 43.2433 -91.6861 139° Southeast 443 510 26,100 1,320 Climbing Minneapolis Center
08:33PM 43.1253 -91.5461 139° Southeast 462 532 27,000 420 Climbing Minneapolis Center
08:34PM 43.0183 -91.4200 139° Southeast 493 567 27,000 -420 Level Minneapolis Center
08:35PM 42.9319 -91.3214 140° Southeast 502 578 26,200 -1,380 Descending Chicago Center
08:37PM 42.6967 -91.0492 140° Southeast 499 574 22,900 -1,680 Descending Minneapolis Center
08:38PM 42.5925 -90.9300 140° Southeast 493 567 21,000 -1,500 Descending Minneapolis Center
08:39PM 42.4942 -90.8161 139° Southeast 476 548 20,000 -540 Descending Chicago Center
08:40PM 42.3931 -90.7097 142° Southeast 465 535 20,000  Level Chicago Center
08:41PM 42.2714 -90.6653 165° South 457 526 20,000  Level Chicago Center
08:42PM 42.1233 -90.6186 167° South 459 528 20,000  Level Chicago Center
08:43PM 42.0000 -90.5783 166° South 459 528 20,000  Level Chicago Center
08:44PM 41.8842 -90.5408 166° South 436 502 20,000  Level Chicago Center
08:45PM 41.7531 -90.4989 167° South 430 495 20,000  Level Chicago Center
08:46PM 41.6606 -90.4019 142° Southeast 434 499 20,000  Level Chicago Center
08:47PM 41.5839 -90.2772 129° Southeast 435 501 20,000  Level Chicago Center
08:48PM 41.5089 -90.1533 129° Southeast 428 493 20,000 -540 Level Chicago Center
08:49PM 41.4353 -90.0342 129° Southeast 419 482 19,000 -1,020 Descending Chicago Center
08:50PM 41.3644 -89.9164 129° Southeast 409 471 17,900 -1,020 Descending Chicago Center
08:51PM 41.2939 -89.8028 130° Southeast 400 460 16,900 -1,140 Descending Chicago Center
08:52PM 41.2094 -89.6667 129° Southeast 397 457 15,600 -1,260 Descending Chicago Center
08:53PM 41.1639 -89.5369 115° Southeast 404 465 14,400 -1,440 Descending Chicago Center
08:54PM 41.1733 -89.3969 85° East 386 444 12,700 -1,680 Descending Chicago Center
08:55PM 41.1828 -89.2575 85° East 379 436 11,000 -1,320 Descending Chicago Center
08:56PM 41.1919 -89.1222 85° East 370 426 10,000 -540 Descending Chicago Center
08:57PM 41.2194 -88.9956 74° East 365 420 10,000  Level Chicago Center
08:58PM 41.2839 -88.8653 57° Northeast 358 412 10,000 -420 Level Chicago Center
09:00PM 41.3272 -88.7736 58° Northeast 308 354 9,200 -1,020 Descending Chicago Center
09:01PM 41.3722 -88.6819 57° Northeast 299 344 7,900 -1,440 Descending Chicago Center
09:02PM 41.4081 -88.5933 62° Northeast 277 319 6,300 -960 Descending Chicago Center
09:03PM 41.4419 -88.5011 64° Northeast 275 316 6,000 -180 Descending Chicago Center
09:04PM 41.4758 -88.4078 64° Northeast 279 321 6,000 -540 Level Chicago Center
09:05PM 41.5150 -88.2986 64° Northeast 274 315 4,900 -1,020 Descending Chicago Center
09:06PM 41.5475 -88.2083 64° Northeast 269 310 4,000 -480 Descending Chicago Center
09:07PM 41.5800 -88.1203 64° Northeast 265 305 4,000  Level Chicago Center
09:08PM 41.6097 -88.0378 64° Northeast 253 291 4,000  Level Chicago Center
09:09PM 41.6344 -87.9664 65° Northeast 225 259 4,000 -180 Level Chicago Center
09:10PM 41.6633 -87.9053 58° Northeast 209 241 3,700 -600 Descending Chicago Center
09:11PM 41.7006 -87.8603 42° Northeast 191 220 2,800 -840 Descending Chicago Center
09:12PM 41.7406 -87.8147 40° Northeast 171 197 2,000 -780 Descending Chicago Center
09:13PM 41.7628 -87.7853 45° Northeast 135 155 1,200 -540 Descending Chicago Center
09:14PM 41.7858 -87.7575 42° Northeast 130 150 900 -300 Descending Chicago Center